Time;durP1;ratioP1;P1;durP2;ratioP2;P2;SDS_P1;SDS_P2;PMS_P1;PMS_P2;Temp;Humidity;BMP_temperature;BMP_pressure;BME280_temperature;BME280_humidity;BME280_pressure;Samples;Min_cycle;Max_cycle;Signal;HPM_P1;HPM_P2
2022/04/28 00:01:48;;;;;;;15.93;11.95;;;7.80;21.40;;;;;;7362433;19;20038;-63
2022/04/28 00:04:19;;;;;;;12.75;10.90;;;7.80;21.40;;;;;;7381227;19;20476;-63
2022/04/28 00:06:49;;;;;;;13.65;11.70;;;7.80;22.20;;;;;;7360644;19;20015;-63
2022/04/28 00:09:20;;;;;;;14.57;11.45;;;7.80;22.20;;;;;;7363435;19;20014;-62
2022/04/28 00:11:51;;;;;;;13.20;11.32;;;7.80;22.80;;;;;;7361666;19;20053;-62
2022/04/28 00:14:24;;;;;;;15.02;12.07;;;7.80;23.20;;;;;;7360815;19;20462;-62
2022/04/28 00:16:54;;;;;;;17.15;11.50;;;7.70;23.80;;;;;;7361027;19;20009;-62
2022/04/28 00:19:25;;;;;;;17.33;12.35;;;7.70;24.60;;;;;;7385106;19;20027;-63
2022/04/28 00:21:55;;;;;;;15.80;11.18;;;7.70;24.80;;;;;;7360879;19;20006;-63
2022/04/28 00:24:26;;;;;;;14.63;12.23;;;7.70;25.60;;;;;;7358361;19;20093;-62
2022/04/28 00:26:56;;;;;;;14.50;12.45;;;7.70;25.90;;;;;;7359751;19;20027;-63
2022/04/28 00:29:29;;;;;;;20.40;13.00;;;7.60;26.30;;;;;;7363698;19;20003;-63
2022/04/28 00:32:00;;;;;;;14.32;12.00;;;7.70;25.40;;;;;;7361903;19;20054;-63
2022/04/28 00:34:30;;;;;;;13.48;10.82;;;7.80;24.80;;;;;;7380888;19;20011;-63
2022/04/28 00:37:00;;;;;;;16.17;12.35;;;7.80;23.80;;;;;;7360571;19;20027;-63
2022/04/28 00:39:31;;;;;;;12.05;10.75;;;7.80;23.40;;;;;;7362706;19;20042;-63
2022/04/28 00:42:02;;;;;;;13.60;11.43;;;7.70;24.20;;;;;;7358797;19;20034;-64
2022/04/28 00:44:36;;;;;;;14.85;11.88;;;7.70;24.80;;;;;;7361417;19;20114;-62
2022/04/28 00:47:08;;;;;;;15.90;12.60;;;7.70;25.00;;;;;;7360627;19;20018;-63
2022/04/28 00:52:23;;;;;;;14.15;11.63;;;7.70;25.30;;;;;;7357839;19;20045;-63
2022/04/28 00:54:55;;;;;;;14.13;11.98;;;7.60;24.70;;;;;;7359845;19;20011;-63
2022/04/28 00:57:26;;;;;;;15.77;12.55;;;7.60;25.20;;;;;;7358717;19;20010;-64
2022/04/28 00:59:59;;;;;;;14.02;11.65;;;7.50;25.60;;;;;;7362069;19;20018;-63
2022/04/28 01:02:29;;;;;;;13.70;11.07;;;7.60;25.80;;;;;;7357163;19;20768;-63
2022/04/28 01:04:59;;;;;;;13.55;11.25;;;7.50;25.70;;;;;;7361081;19;20039;-63
2022/04/28 01:07:29;;;;;;;15.32;12.18;;;7.50;26.80;;;;;;7381752;19;20074;-63
2022/04/28 01:09:59;;;;;;;15.40;12.07;;;7.40;27.60;;;;;;7361814;19;20022;-63
2022/04/28 01:12:29;;;;;;;15.05;12.23;;;7.30;27.70;;;;;;7355659;19;20068;-63
2022/04/28 01:15:01;;;;;;;17.45;12.45;;;7.20;27.90;;;;;;7362313;19;20011;-63
2022/04/28 01:17:31;;;;;;;15.20;12.18;;;7.20;28.50;;;;;;7357337;19;20043;-63
2022/04/28 01:20:01;;;;;;;16.30;12.35;;;7.20;29.20;;;;;;7362034;19;20356;-63
2022/04/28 01:22:35;;;;;;;14.95;11.73;;;7.10;29.80;;;;;;7379448;19;20018;-63
2022/04/28 01:25:07;;;;;;;16.40;12.02;;;7.10;30.60;;;;;;7359695;19;20014;-63
2022/04/28 01:27:39;;;;;;;16.35;11.70;;;7.00;31.60;;;;;;7357757;19;20014;-63
2022/04/28 01:30:16;;;;;;;14.63;11.73;;;6.90;31.80;;;;;;7362574;19;20017;-63
2022/04/28 01:32:46;;;;;;;16.83;12.93;;;6.90;32.50;;;;;;7357190;19;20010;-62
2022/04/28 01:35:16;;;;;;;16.92;12.85;;;6.90;33.00;;;;;;7363643;19;20103;-62
2022/04/28 01:37:48;;;;;;;18.85;13.00;;;6.90;32.90;;;;;;7366936;19;20039;-62
2022/04/28 01:40:18;;;;;;;16.33;13.40;;;6.80;33.30;;;;;;7391911;19;20287;-62
2022/04/28 01:42:50;;;;;;;16.15;13.10;;;6.80;35.00;;;;;;7361327;19;20309;-62
2022/04/28 01:45:20;;;;;;;17.17;13.05;;;6.80;35.30;;;;;;7367132;19;20020;-63
2022/04/28 01:47:51;;;;;;;15.05;12.40;;;6.70;35.60;;;;;;7365743;19;20335;-64
2022/04/28 01:50:21;;;;;;;15.63;12.63;;;6.60;36.00;;;;;;7367787;19;20014;-63
2022/04/28 01:55:36;;;;;;;18.02;14.35;;;6.60;36.80;;;;;;7387050;19;20014;-63
2022/04/28 01:58:06;;;;;;;17.08;14.13;;;6.60;36.60;;;;;;7364873;19;20530;-63
2022/04/28 02:00:36;;;;;;;21.33;14.80;;;6.60;36.30;;;;;;7367207;19;20066;-62
2022/04/28 02:03:07;;;;;;;18.13;14.48;;;6.60;36.40;;;;;;7361748;19;20014;-64
2022/04/28 02:05:37;;;;;;;17.75;14.02;;;6.60;36.80;;;;;;7366491;19;20014;-63
2022/04/28 02:08:10;;;;;;;17.55;13.80;;;6.60;37.10;;;;;;7364246;19;20015;-63
2022/04/28 02:10:40;;;;;;;17.45;14.38;;;6.60;37.30;;;;;;7389052;19;20018;-63
2022/04/28 02:13:11;;;;;;;17.90;14.05;;;6.60;37.50;;;;;;7359681;19;20468;-63
2022/04/28 02:15:42;;;;;;;15.50;13.30;;;6.50;37.10;;;;;;7366638;19;20023;-63
2022/04/28 02:18:12;;;;;;;19.02;15.15;;;6.40;37.80;;;;;;7364090;19;20014;-64
2022/04/28 02:20:42;;;;;;;17.95;14.98;;;6.40;39.00;;;;;;7367337;19;20003;-62
2022/04/28 02:23:14;;;;;;;18.10;14.75;;;6.40;39.10;;;;;;7361313;19;20011;-63
2022/04/28 02:25:44;;;;;;;20.95;14.85;;;6.50;39.20;;;;;;7365340;19;20078;-64
2022/04/28 02:28:14;;;;;;;22.17;15.23;;;6.50;39.20;;;;;;7386854;19;20014;-63
2022/04/28 02:30:44;;;;;;;20.48;15.07;;;6.50;39.30;;;;;;7367184;19;20348;-62
2022/04/28 02:33:14;;;;;;;20.45;15.82;;;6.60;39.70;;;;;;7361534;19;20018;-63
2022/04/28 02:35:53;;;;;;;20.17;16.20;;;6.60;39.40;;;;;;7365205;19;20006;-64
2022/04/28 02:38:26;;;;;;;21.17;15.35;;;6.60;39.20;;;;;;7362213;19;20082;-63
2022/04/28 02:40:56;;;;;;;17.65;14.93;;;6.60;39.50;;;;;;7367056;19;20014;-64
2022/04/28 02:43:26;;;;;;;19.25;16.02;;;6.60;38.90;;;;;;7382481;19;20018;-63
2022/04/28 02:45:56;;;;;;;20.10;15.82;;;6.60;39.00;;;;;;7363900;19;20021;-63
2022/04/28 02:48:26;;;;;;;22.38;15.68;;;6.50;39.00;;;;;;7363653;19;20039;-63
2022/04/28 02:50:56;;;;;;;18.48;14.77;;;6.50;39.10;;;;;;7365835;19;20093;-63
2022/04/28 02:53:28;;;;;;;18.80;15.10;;;6.50;39.30;;;;;;7359638;19;20014;-63
2022/04/28 02:55:58;;;;;;;19.48;15.27;;;6.50;39.30;;;;;;7364184;19;20078;-63
2022/04/28 02:58:28;;;;;;;19.88;14.48;;;6.40;39.20;;;;;;7385574;19;20074;-63
2022/04/28 03:00:57;;;;;;;19.27;14.63;;;6.40;40.00;;;;;;7366798;19;20006;-63
2022/04/28 03:03:27;;;;;;;19.67;15.35;;;6.40;40.70;;;;;;7360108;19;20028;-63
2022/04/28 03:11:25;;;;;;;21.25;15.73;;;6.10;41.40;;;;;;7362927;19;20354;-62
2022/04/28 03:13:56;;;;;;;20.38;14.63;;;6.00;42.30;;;;;;7361165;19;20026;-62
2022/04/28 03:16:26;;;;;;;19.63;15.60;;;6.10;43.10;;;;;;7387214;19;20450;-62
2022/04/28 03:18:56;;;;;;;21.63;17.40;;;6.00;43.20;;;;;;7364371;19;20010;-63
2022/04/28 03:21:27;;;;;;;22.08;16.52;;;6.00;43.30;;;;;;7362305;19;20362;-63
2022/04/28 03:24:00;;;;;;;22.98;16.75;;;6.00;43.30;;;;;;7360220;19;20517;-63
2022/04/28 03:26:31;;;;;;;22.27;16.67;;;6.00;43.60;;;;;;7366201;19;20014;-62
2022/04/28 03:29:01;;;;;;;22.05;16.23;;;5.90;43.00;;;;;;7363365;19;20022;-62
2022/04/28 03:31:31;;;;;;;22.88;17.33;;;5.80;43.10;;;;;;7384746;19;20017;-62
2022/04/28 03:34:01;;;;;;;19.27;15.93;;;5.90;44.80;;;;;;7360749;19;20014;-61
2022/04/28 03:39:16;;;;;;;23.88;17.10;;;5.80;44.80;;;;;;7364902;19;20162;-64
2022/04/28 03:41:46;;;;;;;24.13;16.85;;;5.70;45.10;;;;;;7363434;19;20417;-63
2022/04/28 03:44:15;;;;;;;21.92;17.60;;;5.70;45.20;;;;;;7360496;19;20006;-63
2022/04/28 03:46:45;;;;;;;22.55;17.42;;;5.70;46.60;;;;;;7363122;19;20010;-63
2022/04/28 03:49:15;;;;;;;27.50;17.00;;;5.80;47.00;;;;;;7385408;19;20059;-62
2022/04/28 03:51:45;;;;;;;23.63;17.45;;;5.80;46.90;;;;;;7361202;19;20014;-62
2022/04/28 03:54:17;;;;;;;23.38;18.30;;;5.80;46.80;;;;;;7359270;19;20020;-63
2022/04/28 03:56:47;;;;;;;22.75;17.25;;;5.80;46.90;;;;;;7360954;19;20046;-63
2022/04/28 03:59:17;;;;;;;23.45;17.73;;;5.80;45.80;;;;;;7364263;19;20479;-63
2022/04/28 04:01:48;;;;;;;23.90;17.67;;;5.70;45.70;;;;;;7360395;19;20492;-63
2022/04/28 04:04:19;;;;;;;26.30;17.23;;;5.70;45.90;;;;;;7380502;19;20024;-63
2022/04/28 04:06:49;;;;;;;24.13;18.02;;;5.70;46.60;;;;;;7360903;19;20003;-62
2022/04/28 04:09:21;;;;;;;21.17;17.58;;;5.70;45.90;;;;;;7363184;19;20014;-62
2022/04/28 04:11:51;;;;;;;22.83;18.00;;;5.70;46.30;;;;;;7361602;19;20014;-62
2022/04/28 04:14:21;;;;;;;24.63;17.88;;;5.70;46.80;;;;;;7359039;19;20043;-62
2022/04/28 04:16:51;;;;;;;23.92;18.27;;;5.70;46.30;;;;;;7362665;19;20025;-62
2022/04/28 04:19:21;;;;;;;25.02;17.63;;;5.70;46.60;;;;;;7385910;19;20021;-63
2022/04/28 04:21:51;;;;;;;20.25;16.65;;;5.80;46.90;;;;;;7360295;19;20011;-62
2022/04/28 04:24:23;;;;;;;23.17;17.40;;;5.90;46.00;;;;;;7357745;19;20011;-62
2022/04/28 04:26:53;;;;;;;23.80;17.15;;;6.10;44.10;;;;;;7360770;19;20454;-61
2022/04/28 04:29:23;;;;;;;20.83;16.23;;;6.40;41.90;;;;;;7364221;19;20101;-62
2022/04/28 04:34:35;;;;;;;22.77;17.25;;;7.70;28.90;;;;;;7380932;19;20014;-62
2022/04/28 04:37:06;;;;;;;21.08;15.18;;;8.40;20.50;;;;;;7360820;19;20034;-63
2022/04/28 04:39:40;;;;;;;21.38;15.13;;;8.80;14.40;;;;;;7362380;19;20038;-62
2022/04/28 04:42:11;;;;;;;20.17;14.07;;;9.40;8.90;;;;;;7359596;19;20382;-62
2022/04/28 04:44:41;;;;;;;16.77;12.98;;;9.50;6.30;;;;;;7361091;19;20007;-62
2022/04/28 04:47:10;;;;;;;16.75;13.52;;;9.90;4.70;;;;;;7359500;19;20064;-63
2022/04/28 04:49:40;;;;;;;18.23;12.57;;;10.20;1.00;;;;;;7385094;19;20187;-63
2022/04/28 04:52:10;;;;;;;16.08;12.73;;;10.50;1.00;;;;;;7359100;19;20021;-63
2022/04/28 04:54:43;;;;;;;17.17;12.10;;;10.80;1.00;;;;;;7359011;19;20032;-62
2022/04/28 04:57:12;;;;;;;21.73;11.98;;;10.90;1.00;;;;;;7359889;19;20017;-64
2022/04/28 04:59:42;;;;;;;15.23;10.40;;;11.30;1.00;;;;;;7362485;19;20312;-65
2022/04/28 05:02:12;;;;;;;14.20;10.15;;;11.70;1.00;;;;;;7356413;19;20082;-62
2022/04/28 05:04:42;;;;;;;13.23;9.55;;;11.40;1.00;;;;;;7377645;19;20024;-62
2022/04/28 05:07:12;;;;;;;14.55;11.05;;;11.70;1.00;;;;;;7381396;19;20014;-63
2022/04/28 05:09:45;;;;;;;15.05;10.50;;;11.90;1.00;;;;;;7364397;19;20010;-63
2022/04/28 05:12:15;;;;;;;20.33;11.50;;;12.00;1.00;;;;;;7363373;19;20106;-63
2022/04/28 05:14:45;;;;;;;15.35;10.18;;;12.80;1.00;;;;;;7368234;19;20053;-63
2022/04/28 05:17:16;;;;;;;15.07;10.13;;;13.40;1.00;;;;;;7366834;19;20081;-63
2022/04/28 05:19:46;;;;;;;19.95;12.00;;;14.00;1.00;;;;;;7370128;19;20014;-63
2022/04/28 05:22:16;;;;;;;15.07;11.70;;;13.40;1.00;;;;;;7385987;19;20010;-63
2022/04/28 05:24:49;;;;;;;13.80;10.88;;;13.10;1.00;;;;;;7364529;19;20018;-62
2022/04/28 05:27:19;;;;;;;17.05;10.95;;;13.20;1.00;;;;;;7365281;19;20010;-63
2022/04/28 05:29:49;;;;;;;14.02;10.55;;;14.30;1.00;;;;;;7369795;19;20009;-63
2022/04/28 05:32:18;;;;;;;12.52;10.75;;;13.90;1.00;;;;;;7363465;19;20474;-63
2022/04/28 05:34:48;;;;;;;13.27;11.40;;;14.10;1.00;;;;;;7366582;19;20018;-63
2022/04/28 05:37:18;;;;;;;14.70;10.82;;;14.50;1.00;;;;;;7387360;19;20019;-63
2022/04/28 05:39:51;;;;;;;12.98;10.27;;;14.10;1.00;;;;;;7368007;19;20017;-63
2022/04/28 05:45:41;;;;;;;16.80;11.30;;;13.30;1.00;;;;;;7363338;19;20011;-63
2022/04/28 05:47:54;;;;;;;12.77;11.15;;;10.10;1.00;;;;;;7365234;19;20011;-63
2022/04/28 05:50:24;;;;;;;12.88;10.50;;;10.00;1.00;;;;;;7368463;19;20557;-63
2022/04/28 05:52:54;;;;;;;13.07;10.05;;;9.90;1.00;;;;;;7361538;19;20483;-64
2022/04/28 05:55:27;;;;;;;11.75;9.95;;;9.70;1.00;;;;;;7387956;19;20015;-63
2022/04/28 05:57:59;;;;;;;13.20;10.90;;;9.70;1.00;;;;;;7363961;19;20017;-64
2022/04/28 06:00:28;;;;;;;13.18;10.93;;;9.60;3.30;;;;;;7366447;19;20102;-63
2022/04/28 06:02:59;;;;;;;13.95;10.65;;;9.70;2.40;;;;;;7360647;19;20017;-63
2022/04/28 06:05:29;;;;;;;15.63;11.55;;;9.70;2.80;;;;;;7364634;19;20007;-63
2022/04/28 06:08:00;;;;;;;13.90;10.95;;;9.60;3.20;;;;;;7365351;19;20012;-63
2022/04/28 06:10:32;;;;;;;15.23;11.05;;;9.60;3.80;;;;;;7389255;19;20070;-63
2022/04/28 06:13:02;;;;;;;12.82;11.02;;;9.70;3.10;;;;;;7360218;19;20026;-63
2022/04/28 06:15:32;;;;;;;16.30;10.70;;;9.50;4.00;;;;;;7365947;19;20014;-63
2022/04/28 06:18:02;;;;;;;12.68;10.85;;;9.90;2.90;;;;;;7364705;19;20021;-63
2022/04/28 06:20:31;;;;;;;15.23;11.30;;;10.10;1.00;;;;;;7367432;19;20006;-62
2022/04/28 06:23:01;;;;;;;18.70;11.07;;;10.00;1.00;;;;;;7359817;19;20017;-63
2022/04/28 06:25:34;;;;;;;13.35;11.18;;;10.30;1.00;;;;;;7385587;19;20545;-62
2022/04/28 06:28:04;;;;;;;14.75;11.13;;;10.30;1.00;;;;;;7365535;19;20458;-62
2022/04/28 06:30:34;;;;;;;14.13;10.50;;;10.60;1.00;;;;;;7366227;19;20018;-63
2022/04/28 06:33:04;;;;;;;14.10;10.88;;;10.70;1.00;;;;;;7358628;19;20058;-63
2022/04/28 06:35:34;;;;;;;12.55;9.80;;;10.80;1.00;;;;;;7365099;19;20075;-62
2022/04/28 06:38:04;;;;;;;14.40;11.20;;;11.00;1.00;;;;;;7364601;19;20145;-63
2022/04/28 06:40:37;;;;;;;12.05;10.18;;;11.00;1.00;;;;;;7389124;19;20396;-63
2022/04/28 06:43:07;;;;;;;12.35;10.30;;;11.00;1.00;;;;;;7359321;19;20601;-63
2022/04/28 06:45:37;;;;;;;14.52;9.90;;;10.90;1.00;;;;;;7363786;19;20010;-63
2022/04/28 06:48:08;;;;;;;13.25;9.63;;;10.80;1.00;;;;;;7363277;19;20081;-62
2022/04/28 06:50:38;;;;;;;13.13;10.55;;;10.60;1.00;;;;;;7366317;19;20446;-62
2022/04/28 06:53:07;;;;;;;10.82;9.38;;;11.20;1.00;;;;;;7357399;19;20082;-62
2022/04/28 06:55:40;;;;;;;12.40;10.10;;;11.40;1.00;;;;;;7385344;19;20085;-62
2022/04/28 06:58:10;;;;;;;13.15;10.13;;;11.50;1.00;;;;;;7363919;19;20027;-62
2022/04/28 07:00:40;;;;;;;12.30;9.32;;;11.70;1.00;;;;;;7363862;19;20091;-62
2022/04/28 07:03:09;;;;;;;11.43;9.50;;;11.80;1.00;;;;;;7358554;19;20046;-62
2022/04/28 07:05:41;;;;;;;13.05;10.32;;;11.70;1.00;;;;;;7362831;19;20013;-64
2022/04/28 07:08:11;;;;;;;13.88;9.68;;;12.00;1.00;;;;;;7362714;19;20018;-63
2022/04/28 07:10:43;;;;;;;13.35;9.70;;;12.20;1.00;;;;;;7387802;19;20540;-63
2022/04/28 07:13:13;;;;;;;10.57;9.05;;;12.00;1.00;;;;;;7356568;19;20014;-63
2022/04/28 07:15:43;;;;;;;12.70;9.90;;;12.20;1.00;;;;;;7363694;19;20090;-63
2022/04/28 07:18:15;;;;;;;13.88;9.13;;;12.50;1.00;;;;;;7363972;19;20010;-63
2022/04/28 07:20:45;;;;;;;12.02;9.20;;;12.30;1.00;;;;;;7364912;19;20093;-63
2022/04/28 07:23:15;;;;;;;14.55;9.13;;;12.50;1.00;;;;;;7357742;19;20031;-63
2022/04/28 07:25:48;;;;;;;12.50;9.48;;;12.70;1.00;;;;;;7362639;19;20105;-63
2022/04/28 07:28:17;;;;;;;13.10;9.00;;;12.80;1.00;;;;;;7384201;19;20019;-63
2022/04/28 07:30:47;;;;;;;13.38;9.13;;;12.70;1.00;;;;;;7364302;19;20584;-63
2022/04/28 07:33:17;;;;;;;10.63;9.05;;;12.90;1.00;;;;;;7355349;19;20028;-63
2022/04/28 07:35:55;;;;;;;15.48;9.20;;;13.20;1.00;;;;;;7363584;19;20015;-63
2022/04/28 07:38:25;;;;;;;11.88;9.60;;;13.20;1.00;;;;;;7362564;19;20177;-63
2022/04/28 07:40:57;;;;;;;10.95;9.30;;;13.20;1.00;;;;;;7365117;19;20525;-63
2022/04/28 07:43:27;;;;;;;16.15;10.30;;;13.30;1.00;;;;;;7378679;19;20104;-63
2022/04/28 07:45:57;;;;;;;15.15;8.98;;;13.30;1.00;;;;;;7363500;19;20070;-63
2022/04/28 07:48:28;;;;;;;15.77;10.00;;;13.30;1.00;;;;;;7361692;19;20074;-63
2022/04/28 07:50:58;;;;;;;15.20;9.20;;;13.50;1.00;;;;;;7363073;19;20011;-63
2022/04/28 07:53:28;;;;;;;11.88;9.07;;;13.80;1.00;;;;;;7356176;19;20006;-62
2022/04/28 07:58:48;;;;;;;11.68;9.20;;;13.50;1.00;;;;;;7361104;19;20474;-63
2022/04/28 08:01:38;;;;;;;12.23;8.25;;;13.50;1.00;;;;;;7384997;19;21206;-63
2022/04/28 08:04:08;;;;;;;12.27;8.45;;;13.80;1.00;;;;;;7357369;19;20014;-63
2022/04/28 08:06:38;;;;;;;8.68;7.80;;;13.90;1.00;;;;;;7363219;19;20006;-63
2022/04/28 08:09:08;;;;;;;11.93;8.25;;;13.60;1.00;;;;;;7362799;19;20014;-63
2022/04/28 08:11:42;;;;;;;10.32;7.57;;;13.80;1.00;;;;;;7361112;19;20011;-63
2022/04/28 08:14:11;;;;;;;10.73;8.20;;;14.00;1.00;;;;;;7356052;19;20014;-63
2022/04/28 08:16:43;;;;;;;9.90;8.13;;;14.10;1.00;;;;;;7385177;19;20431;-63
2022/04/28 08:19:13;;;;;;;8.75;7.38;;;14.10;1.00;;;;;;7361719;19;20470;-63
2022/04/28 08:21:44;;;;;;;11.60;8.48;;;14.30;1.00;;;;;;7361054;19;20677;-63
2022/04/28 08:24:13;;;;;;;10.25;8.52;;;14.30;1.00;;;;;;7358398;19;20670;-63
2022/04/28 08:26:46;;;;;;;10.52;8.15;;;14.50;1.00;;;;;;7363136;19;20463;-63
2022/04/28 08:29:16;;;;;;;10.35;7.43;;;14.60;1.00;;;;;;7359783;19;20623;-63
2022/04/28 08:31:46;;;;;;;7.80;7.00;;;14.50;1.00;;;;;;7361429;19;20015;-63
2022/04/28 08:34:17;;;;;;;11.10;7.18;;;15.00;1.00;;;;;;7379014;19;20022;-62
2022/04/28 08:36:48;;;;;;;8.40;7.15;;;15.20;1.00;;;;;;7361951;19;20018;-63
2022/04/28 08:39:19;;;;;;;9.20;6.93;;;15.10;1.00;;;;;;7358521;19;20438;-63
2022/04/28 08:41:53;;;;;;;8.98;6.97;;;14.90;1.00;;;;;;7360839;19;20014;-64
2022/04/28 08:44:24;;;;;;;7.78;6.40;;;15.00;1.00;;;;;;7361283;19;20014;-62
2022/04/28 08:46:56;;;;;;;8.68;6.65;;;15.20;1.00;;;;;;7368399;19;20046;-62
2022/04/28 08:49:29;;;;;;;10.93;6.45;;;15.10;1.00;;;;;;7388455;19;20018;-62
2022/04/28 08:52:00;;;;;;;7.82;6.28;;;15.30;1.00;;;;;;7367562;19;20390;-64
2022/04/28 08:54:32;;;;;;;11.38;6.80;;;15.30;1.00;;;;;;7364212;19;20033;-63
2022/04/28 08:57:11;;;;;;;8.45;6.85;;;15.50;1.00;;;;;;7370183;19;20021;-63
2022/04/28 08:59:41;;;;;;;7.65;6.03;;;15.70;1.00;;;;;;7368370;19;20020;-61
2022/04/28 09:02:14;;;;;;;8.38;6.10;;;15.80;1.00;;;;;;7367093;19;20007;-62
2022/04/28 09:04:44;;;;;;;8.65;5.90;;;15.70;1.00;;;;;;7369557;19;20506;-62
2022/04/28 09:07:14;;;;;;;7.78;6.10;;;15.70;1.00;;;;;;7390617;19;20010;-63
2022/04/28 09:09:46;;;;;;;8.45;6.15;;;16.00;1.00;;;;;;7368697;19;20396;-63
2022/04/28 09:12:23;;;;;;;6.18;5.45;;;16.20;1.00;;;;;;7364833;19;20391;-63
2022/04/28 09:14:55;;;;;;;6.50;5.38;;;15.90;1.00;;;;;;7368141;19;20093;-63
2022/04/28 09:17:25;;;;;;;8.93;5.97;;;16.10;1.00;;;;;;7366905;19;20006;-62
2022/04/28 09:20:02;;;;;;;6.30;5.20;;;16.30;1.00;;;;;;7368272;19;20086;-63
2022/04/28 09:22:33;;;;;;;7.13;5.55;;;16.40;1.00;;;;;;7384789;19;20082;-63
2022/04/28 09:25:03;;;;;;;6.13;4.90;;;16.30;1.00;;;;;;7367009;19;19999;-63
2022/04/28 09:27:35;;;;;;;5.82;4.28;;;16.50;1.00;;;;;;7365461;19;20024;-63
2022/04/28 09:30:07;;;;;;;5.85;4.47;;;16.40;1.00;;;;;;7366824;19;20006;-63
2022/04/28 09:32:38;;;;;;;4.97;4.30;;;16.90;1.00;;;;;;7362715;19;20098;-63
2022/04/28 09:35:18;;;;;;;5.18;4.68;;;17.10;1.00;;;;;;7366907;19;20023;-64
2022/04/28 09:37:48;;;;;;;6.38;4.78;;;16.80;1.00;;;;;;7367556;19;20073;-63
2022/04/28 09:43:05;;;;;;;3.95;3.38;;;16.90;1.00;;;;;;7360589;19;20010;-61
2022/04/28 09:45:36;;;;;;;6.90;2.97;;;16.80;1.00;;;;;;7367034;19;20014;-64
2022/04/28 09:48:07;;;;;;;4.45;2.85;;;16.70;1.00;;;;;;7364678;19;20034;-65
2022/04/28 09:50:41;;;;;;;3.15;2.75;;;17.30;1.00;;;;;;7368460;19;20616;-64
2022/04/28 09:53:14;;;;;;;3.22;2.92;;;17.40;1.00;;;;;;7361968;19;20021;-64
2022/04/28 09:55:50;;;;;;;7.32;2.60;;;17.10;1.00;;;;;;7367339;19;20010;-63
2022/04/28 09:58:24;;;;;;;5.45;3.05;;;17.30;1.00;;;;;;7386393;19;20408;-63
2022/04/28 10:00:54;;;;;;;3.88;3.03;;;17.50;1.00;;;;;;7367452;19;20178;-63
2022/04/28 10:03:37;;;;;;;3.92;2.97;;;17.60;1.00;;;;;;7359885;19;20070;-63
2022/04/28 10:06:07;;;;;;;5.93;4.13;;;17.50;1.00;;;;;;7367406;19;20014;-63
2022/04/28 10:08:38;;;;;;;7.03;2.90;;;17.60;1.00;;;;;;7364997;19;20003;-63
2022/04/28 10:11:11;;;;;;;3.92;3.08;;;17.60;1.00;;;;;;7368621;19;20557;-64
2022/04/28 10:13:44;;;;;;;4.72;2.97;;;17.40;1.00;;;;;;7383076;19;20054;-63
2022/04/28 10:16:16;;;;;;;5.18;2.40;;;17.20;1.00;;;;;;7367384;19;20012;-64
2022/04/28 10:18:51;;;;;;;2.75;2.40;;;17.20;1.00;;;;;;7363338;19;20021;-64
2022/04/28 10:21:25;;;;;;;4.57;3.10;;;17.30;1.00;;;;;;7364250;19;20010;-64
2022/04/28 10:32:58;;;;;;;3.78;2.75;;;17.70;1.00;;;;;;7362204;19;20025;-64
2022/04/28 10:35:40;;;;;;;4.85;3.00;;;17.80;1.00;;;;;;7364942;19;20014;-63
2022/04/28 10:38:21;;;;;;;5.20;2.50;;;17.60;1.00;;;;;;7364648;19;20010;-63
2022/04/28 10:41:00;;;;;;;5.22;3.00;;;17.90;1.00;;;;;;7364779;19;20036;-64
2022/04/28 10:43:39;;;;;;;3.40;2.88;;;18.00;1.00;;;;;;7381576;19;20010;-63
2022/04/28 10:46:34;;;;;;;5.95;2.75;;;18.50;1.00;;;;;;7365745;19;20011;-64
2022/04/28 10:49:07;;;;;;;2.90;2.50;;;18.00;1.00;;;;;;7361305;19;20042;-63
2022/04/28 10:51:37;;;;;;;3.58;3.17;;;18.10;1.00;;;;;;7364444;19;20050;-63
2022/04/28 10:54:14;;;;;;;4.60;2.83;;;17.70;1.00;;;;;;7360683;19;20027;-61
2022/04/28 10:57:02;;;;;;;6.75;2.63;;;17.60;1.00;;;;;;7365494;19;20007;-64
2022/04/28 10:59:40;;;;;;;5.38;2.67;;;17.70;1.00;;;;;;7364498;19;20060;-64
2022/04/28 11:02:47;;;;;;;5.22;2.63;;;17.80;1.00;;;;;;7363078;19;20105;-63
2022/04/28 11:05:42;;;;;;;4.40;2.80;;;17.70;1.00;;;;;;7363196;19;20018;-62
2022/04/28 11:08:31;;;;;;;3.17;2.88;;;18.00;1.00;;;;;;7361334;19;20042;-64
2022/04/28 11:11:13;;;;;;;3.85;2.58;;;17.80;1.00;;;;;;7365138;19;20102;-65
2022/04/28 11:13:49;;;;;;;3.60;3.08;;;18.10;1.00;;;;;;7368800;19;20025;-64
2022/04/28 11:16:20;;;;;;;3.60;2.72;;;18.00;1.00;;;;;;7386934;19;20042;-61
2022/04/28 11:18:50;;;;;;;7.15;3.08;;;18.30;1.00;;;;;;7362254;19;20010;-59
2022/04/28 11:21:23;;;;;;;2.97;2.67;;;18.30;1.00;;;;;;7363912;19;20010;-60
2022/04/28 11:23:54;;;;;;;4.07;3.00;;;18.30;1.00;;;;;;7359237;19;20007;-60
2022/04/28 11:26:28;;;;;;;3.85;2.70;;;18.00;1.00;;;;;;7364536;19;20015;-60
2022/04/28 11:29:12;;;;;;;3.42;2.88;;;18.00;1.00;;;;;;7396904;19;20356;-61
2022/04/28 11:31:49;;;;;;;4.32;3.25;;;18.60;1.00;;;;;;7419275;19;20050;-59
2022/04/28 11:34:19;;;;;;;2.90;2.60;;;18.90;1.00;;;;;;7392233;19;20014;-59
2022/04/28 11:36:50;;;;;;;3.40;2.92;;;18.90;1.00;;;;;;7399002;19;20392;-60
2022/04/28 11:39:24;;;;;;;6.28;2.95;;;18.20;1.00;;;;;;7396057;19;20010;-59
2022/04/28 11:41:55;;;;;;;4.45;2.72;;;18.40;1.00;;;;;;7394299;19;20086;-59
2022/04/28 11:44:28;;;;;;;4.13;2.50;;;18.50;1.00;;;;;;7393593;19;20035;-59
2022/04/28 11:46:59;;;;;;;3.63;2.85;;;18.70;1.00;;;;;;7398934;19;20014;-60
2022/04/28 11:49:38;;;;;;;5.07;3.03;;;18.90;1.00;;;;;;7417020;19;20018;-60
2022/04/28 11:52:23;;;;;;;4.72;2.83;;;18.50;1.00;;;;;;7396551;19;20018;-59
2022/04/28 11:54:55;;;;;;;5.28;3.53;;;18.30;1.00;;;;;;7394639;19;20573;-59
2022/04/28 11:57:25;;;;;;;8.48;2.80;;;18.80;1.00;;;;;;7396402;19;20020;-59
2022/04/28 11:59:59;;;;;;;3.30;2.85;;;18.70;1.00;;;;;;7397025;19;20014;-58
2022/04/28 12:02:32;;;;;;;4.20;2.83;;;18.60;1.00;;;;;;7388781;19;20602;-59
2022/04/28 12:05:05;;;;;;;3.55;2.95;;;18.20;1.00;;;;;;7394765;19;20018;-59
2022/04/28 12:07:37;;;;;;;3.03;2.53;;;18.60;1.00;;;;;;7417932;19;20014;-59
2022/04/28 12:15:37;;;;;;;4.30;2.60;;;18.70;1.00;;;;;;7395649;19;20078;-59
2022/04/28 12:20:56;;;;;;;4.47;2.47;;;19.10;1.00;;;;;;7396321;19;20006;-59
2022/04/28 12:23:30;;;;;;;6.97;2.45;;;19.00;1.00;;;;;;7390944;19;20026;-59
2022/04/28 12:26:01;;;;;;;;;;;18.90;1.00;;;;;;7397945;19;20010;-59
2022/04/28 12:28:33;;;;;;;3.15;2.50;;;18.70;1.00;;;;;;7415508;19;20363;-60
2022/04/28 12:31:05;;;;;;;3.42;2.80;;;18.80;1.00;;;;;;7395788;19;20027;-59
2022/04/28 12:33:37;;;;;;;3.70;2.75;;;18.90;1.00;;;;;;7389371;19;20367;-60
2022/04/28 12:36:11;;;;;;;3.00;2.70;;;18.90;1.00;;;;;;7397609;19;20011;-59
2022/04/28 12:38:46;;;;;;;4.47;2.40;;;19.30;1.00;;;;;;7386779;19;20437;-59
2022/04/28 12:41:18;;;;;;;4.82;2.97;;;19.20;1.00;;;;;;7367884;19;20015;-60
2022/04/28 12:43:51;;;;;;;6.45;3.53;;;19.00;1.00;;;;;;7362733;19;20015;-60
2022/04/28 12:46:35;;;;;;;6.90;3.35;;;18.60;1.00;;;;;;7390772;19;20017;-59
2022/04/28 12:49:07;;;;;;;4.57;3.17;;;18.70;1.00;;;;;;7363620;19;20018;-60
2022/04/28 12:51:44;;;;;;;3.25;2.80;;;18.90;1.00;;;;;;7366455;19;20102;-60
2022/04/28 12:54:15;;;;;;;5.88;2.75;;;18.90;1.00;;;;;;7360466;19;20007;-59
2022/04/28 12:56:46;;;;;;;3.25;2.90;;;19.00;1.00;;;;;;7367160;19;20362;-59
2022/04/28 12:59:21;;;;;;;5.22;2.70;;;18.60;1.00;;;;;;7364896;19;20117;-59
2022/04/28 13:01:54;;;;;;;3.28;2.70;;;18.70;1.00;;;;;;7363975;19;20020;-60
2022/04/28 13:04:26;;;;;;;4.88;2.67;;;19.00;1.00;;;;;;7383547;19;20094;-59
2022/04/28 13:06:56;;;;;;;4.30;2.55;;;18.80;1.00;;;;;;7367582;19;20017;-60
2022/04/28 13:09:32;;;;;;;3.03;2.55;;;19.10;1.00;;;;;;7362978;19;20014;-60
2022/04/28 13:12:02;;;;;;;3.92;2.95;;;19.40;1.00;;;;;;7365849;19;20036;-59
2022/04/28 13:14:34;;;;;;;2.90;2.30;;;19.30;1.00;;;;;;7362268;19;20130;-60
2022/04/28 13:17:07;;;;;;;5.47;3.03;;;19.40;1.00;;;;;;7368142;19;20054;-59
2022/04/28 13:19:37;;;;;;;3.17;2.72;;;19.10;1.00;;;;;;7387047;19;20459;-60
2022/04/28 13:22:07;;;;;;;4.60;2.95;;;19.00;1.00;;;;;;7366540;19;20018;-62
2022/04/28 13:24:37;;;;;;;4.10;2.83;;;19.10;1.00;;;;;;7361636;19;20018;-60
2022/04/28 13:27:08;;;;;;;4.25;3.20;;;18.90;1.00;;;;;;7365503;19;20010;-60
2022/04/28 13:29:39;;;;;;;4.90;2.75;;;18.70;1.00;;;;;;7363587;19;20477;-59
2022/04/28 13:32:13;;;;;;;3.85;3.00;;;18.80;1.00;;;;;;7364770;19;20022;-60
2022/04/28 13:34:43;;;;;;;4.57;2.70;;;18.80;1.00;;;;;;7384321;19;20017;-60
2022/04/28 13:37:13;;;;;;;4.07;2.72;;;18.70;1.00;;;;;;7386942;19;20031;-60
2022/04/28 13:39:44;;;;;;;3.65;2.90;;;19.00;1.00;;;;;;7364578;19;20018;-59
2022/04/28 13:42:14;;;;;;;3.13;2.78;;;19.10;1.00;;;;;;7362181;19;20015;-60
2022/04/28 13:44:45;;;;;;;4.03;2.72;;;19.30;1.00;;;;;;7363658;19;20015;-61
2022/04/28 13:47:17;;;;;;;4.38;2.88;;;18.90;1.00;;;;;;7365707;19;20016;-61
2022/04/28 13:49:48;;;;;;;3.38;2.95;;;18.90;1.00;;;;;;7364465;19;20392;-60
2022/04/28 13:52:18;;;;;;;3.53;2.50;;;19.20;1.00;;;;;;7381065;19;20090;-60